Time;durP1;ratioP1;P1;durP2;ratioP2;P2;SDS_P1;SDS_P2;PMS_P1;PMS_P2;Temp;Humidity;BMP_temperature;BMP_pressure;BME280_temperature;BME280_humidity;BME280_pressure;Samples;Min_cycle;Max_cycle;Signal;HPM_P1;HPM_P2
2023/07/06 00:00:54;;;;;;;5.70;2.77;;;;;;;17.19;67.30;98257.56;5071977;28;20208;-84
2023/07/06 00:03:23;;;;;;;5.40;3.00;;;;;;;17.20;66.64;98253.91;5072038;28;20218;-84
2023/07/06 00:05:52;;;;;;;3.47;2.50;;;;;;;17.23;65.84;98248.28;5071535;28;20230;-84
2023/07/06 00:08:20;;;;;;;3.37;2.50;;;;;;;17.26;65.65;98245.31;5072046;28;20203;-84
2023/07/06 00:10:50;;;;;;;3.40;2.27;;;;;;;17.30;65.11;98248.53;5071394;28;20235;-83
2023/07/06 00:13:20;;;;;;;3.13;2.30;;;;;;;17.29;64.95;98247.69;5072305;28;20211;-84
2023/07/06 00:15:48;;;;;;;3.50;2.20;;;;;;;17.29;65.27;98246.84;5071500;28;20208;-84
2023/07/06 00:18:16;;;;;;;3.77;2.47;;;;;;;17.20;65.81;98237.88;5070706;28;20262;-84
2023/07/06 00:20:44;;;;;;;3.40;2.03;;;;;;;17.15;66.00;98244.63;5071320;28;20231;-84
2023/07/06 00:23:12;;;;;;;2.77;2.03;;;;;;;17.09;66.18;98248.75;5072294;28;20222;-84
2023/07/06 00:25:41;;;;;;;3.00;1.90;;;;;;;16.99;65.62;98245.22;5071741;28;20207;-84
2023/07/06 00:28:08;;;;;;;2.43;1.97;;;;;;;16.92;65.99;98248.59;5071669;28;20207;-84
2023/07/06 00:30:52;;;;;;;2.43;1.97;;;;;;;16.85;66.09;98253.69;5071307;28;20223;-84
2023/07/06 00:33:21;;;;;;;2.20;2.00;;;;;;;16.84;66.68;98252.00;5071666;28;20211;-84
2023/07/06 00:35:48;;;;;;;3.10;1.83;;;;;;;16.82;66.98;98251.28;5071501;28;20210;-84
2023/07/06 00:38:16;;;;;;;1.90;1.70;;;;;;;16.76;66.70;98251.84;5071461;28;20685;-83
2023/07/06 00:40:45;;;;;;;2.33;2.07;;;;;;;16.76;66.33;98254.53;5071723;28;20235;-84
2023/07/06 00:43:15;;;;;;;3.43;2.00;;;;;;;16.76;66.22;98259.84;5071217;28;20214;-84
2023/07/06 00:45:44;;;;;;;3.90;2.17;;;;;;;16.83;65.65;98250.28;5071538;28;20269;-84
2023/07/06 00:48:16;;;;;;;2.80;2.10;;;;;;;16.87;66.28;98254.38;5071622;28;20211;-84
2023/07/06 00:50:42;;;;;;;3.20;2.10;;;;;;;16.92;66.41;98257.47;5071165;28;20227;-83
2023/07/06 00:53:15;;;;;;;2.50;2.07;;;;;;;16.94;67.14;98260.00;5071585;28;20207;-84
2023/07/06 00:55:42;;;;;;;3.43;1.77;;;;;;;16.98;66.73;98259.56;5071375;28;20211;-83
2023/07/06 00:58:24;;;;;;;2.63;1.93;;;;;;;16.97;66.98;98263.22;5071182;28;20659;-83
2023/07/06 01:00:55;;;;;;;2.23;1.83;;;;;;;16.94;67.10;98260.00;5069557;28;20224;-83
2023/07/06 01:03:22;;;;;;;4.03;2.40;;;;;;;16.86;67.84;98260.72;5071013;28;20211;-84
2023/07/06 01:05:52;;;;;;;3.03;1.90;;;;;;;16.79;68.31;98254.25;5071034;28;20210;-84
2023/07/06 01:08:22;;;;;;;2.90;2.17;;;;;;;16.74;68.58;98256.50;5071407;28;20298;-84
2023/07/06 01:10:51;;;;;;;2.93;2.00;;;;;;;16.74;68.40;98255.66;5070709;28;20235;-84
2023/07/06 01:13:19;;;;;;;3.63;2.10;;;;;;;16.70;68.20;98249.75;5070849;28;20630;-84
2023/07/06 01:15:50;;;;;;;2.60;1.90;;;;;;;16.64;69.81;98258.31;5070951;28;20212;-84
2023/07/06 01:18:24;;;;;;;2.67;1.93;;;;;;;16.53;70.55;98253.09;5071042;28;20211;-84
2023/07/06 01:20:57;;;;;;;2.60;2.00;;;;;;;16.38;72.75;98246.50;5070576;28;20223;-83
2023/07/06 01:24:05;;;;;;;2.87;2.20;;;;;;;16.20;73.44;98256.16;5071055;28;20593;-84
2023/07/06 01:26:47;;;;;;;2.10;1.90;;;;;;;16.08;73.87;98252.91;5065237;28;20219;-83
2023/07/06 01:29:31;;;;;;;3.10;2.33;;;;;;;15.96;75.42;98267.31;5070316;28;20234;-84
2023/07/06 01:32:02;;;;;;;3.20;2.23;;;;;;;15.83;76.83;98261.38;5074681;28;20230;-84
2023/07/06 01:34:35;;;;;;;3.73;2.80;;;;;;;15.69;77.88;98253.72;5074764;28;20674;-84
2023/07/06 01:37:09;;;;;;;4.60;2.80;;;;;;;15.53;79.87;98259.56;5074525;28;20264;-84
2023/07/06 01:39:36;;;;;;;5.00;3.03;;;;;;;15.48;80.73;98260.94;5073944;28;20242;-84
2023/07/06 01:42:26;;;;;;;5.50;3.20;;;;;;;15.38;81.45;98260.06;5074293;28;20218;-84
2023/07/06 01:44:56;;;;;;;2.73;2.43;;;;;;;15.28;81.82;98254.66;5074344;28;20565;-83
2023/07/06 01:47:26;;;;;;;4.93;3.00;;;;;;;15.19;83.95;98259.91;5074433;28;20211;-84
2023/07/06 01:49:53;;;;;;;4.73;3.20;;;;;;;15.17;84.10;98252.09;5073796;28;20227;-83
2023/07/06 01:52:29;;;;;;;4.70;3.30;;;;;;;15.14;84.50;98256.78;5074348;28;20203;-83
2023/07/06 01:55:08;;;;;;;4.90;3.40;;;;;;;15.08;85.54;98265.31;5073696;28;20207;-83
2023/07/06 01:57:40;;;;;;;5.00;3.30;;;;;;;15.08;85.91;98259.97;5073801;28;20306;-83
2023/07/06 02:00:14;;;;;;;5.03;2.90;;;;;;;15.04;86.17;98266.56;5073091;28;20231;-84
2023/07/06 02:02:44;;;;;;;3.47;2.90;;;;;;;15.00;86.06;98259.81;5073845;28;20267;-83
2023/07/06 02:05:12;;;;;;;4.90;3.20;;;;;;;15.04;85.80;98261.25;5073413;28;20261;-84
2023/07/06 02:07:41;;;;;;;5.63;3.17;;;;;;;15.01;85.58;98261.47;5073602;28;20226;-83
2023/07/06 02:10:08;;;;;;;4.03;3.20;;;;;;;14.93;85.43;98259.50;5073330;28;20239;-84
2023/07/06 02:12:36;;;;;;;4.10;3.00;;;;;;;14.88;86.18;98255.50;5073566;28;20211;-83
2023/07/06 02:15:03;;;;;;;3.40;2.70;;;;;;;14.81;86.57;98254.34;5073373;28;20215;-84
2023/07/06 02:17:29;;;;;;;3.00;2.63;;;;;;;14.73;87.23;98246.19;5073715;28;20204;-83
2023/07/06 02:19:57;;;;;;;3.90;2.87;;;;;;;14.64;87.80;98246.94;5073063;28;20242;-83
2023/07/06 02:22:26;;;;;;;4.33;2.90;;;;;;;14.55;88.57;98263.66;5073440;28;20230;-83
2023/07/06 02:24:53;;;;;;;3.40;2.80;;;;;;;14.52;88.62;98258.59;5073341;28;20261;-82
2023/07/06 02:27:19;;;;;;;3.47;2.80;;;;;;;14.54;88.46;98267.31;5073197;28;20218;-83
2023/07/06 02:29:46;;;;;;;3.67;2.73;;;;;;;14.55;88.96;98266.34;5073012;28;20314;-83
2023/07/06 02:32:13;;;;;;;2.67;2.37;;;;;;;14.57;89.44;98267.03;5073310;28;20294;-83
2023/07/06 02:34:39;;;;;;;3.33;2.83;;;;;;;14.63;89.60;98271.84;5073145;28;20215;-83
2023/07/06 02:37:08;;;;;;;3.53;2.70;;;;;;;14.73;89.79;98275.44;5073060;28;20246;-83
2023/07/06 02:39:34;;;;;;;4.33;2.93;;;;;;;14.76;89.68;98267.19;5072574;28;20607;-83
2023/07/06 02:42:01;;;;;;;3.27;2.60;;;;;;;14.79;90.10;98256.31;5071947;28;20211;-83
2023/07/06 02:44:27;;;;;;;4.47;2.70;;;;;;;14.77;90.01;98264.41;5072856;28;20203;-83
2023/07/06 02:46:54;;;;;;;3.57;3.10;;;;;;;14.68;90.07;98264.34;5073040;28;20208;-83
2023/07/06 02:49:20;;;;;;;4.10;2.50;;;;;;;14.67;89.44;98257.34;5072421;28;20235;-82
2023/07/06 02:51:47;;;;;;;3.80;2.80;;;;;;;14.56;89.94;98260.88;5073031;28;20199;-82
2023/07/06 02:54:15;;;;;;;4.53;2.93;;;;;;;14.43;90.10;98264.69;5072653;28;20211;-82
2023/07/06 02:56:42;;;;;;;3.00;2.53;;;;;;;14.34;90.34;98262.75;5072389;28;20207;-82
2023/07/06 02:59:09;;;;;;;4.53;3.00;;;;;;;14.25;91.36;98271.50;5071970;28;20231;-82
2023/07/06 03:01:36;;;;;;;5.20;2.90;;;;;;;14.14;92.58;98266.19;5072574;28;20206;-82
2023/07/06 03:04:09;;;;;;;4.90;3.03;;;;;;;14.06;94.24;98271.28;5072334;28;20207;-82
2023/07/06 03:06:36;;;;;;;3.93;3.10;;;;;;;14.03;94.23;98261.75;5072466;28;20203;-82
2023/07/06 03:09:03;;;;;;;4.67;3.10;;;;;;;13.96;95.01;98271.19;5089017;22;20239;-77
2023/07/06 03:11:31;;;;;;;4.97;3.30;;;;;;;13.94;94.25;98266.97;5089722;28;20223;-78
2023/07/06 03:13:59;;;;;;;4.33;3.10;;;;;;;13.88;93.66;98262.97;5089644;28;20207;-78
2023/07/06 03:16:26;;;;;;;3.13;2.80;;;;;;;13.84;94.48;98258.88;5085282;28;20243;-78
2023/07/06 03:18:52;;;;;;;3.73;2.97;;;;;;;13.84;94.70;98255.38;5075072;28;20278;-79
2023/07/06 03:21:20;;;;;;;4.60;3.40;;;;;;;13.78;96.00;98251.41;5072188;28;20254;-79
2023/07/06 03:23:47;;;;;;;4.27;3.10;;;;;;;13.76;97.33;98258.63;5072262;28;20242;-80
2023/07/06 03:26:14;;;;;;;3.40;3.10;;;;;;;13.73;96.90;98258.03;5072185;28;20207;-79
2023/07/06 03:28:42;;;;;;;3.50;3.20;;;;;;;13.73;96.48;98258.91;5072531;28;20210;-78
2023/07/06 03:31:09;;;;;;;4.43;3.37;;;;;;;13.71;96.84;98260.84;5071641;28;20228;-79
2023/07/06 03:33:35;;;;;;;3.60;3.00;;;;;;;13.67;96.56;98263.84;5072012;28;20214;-80
2023/07/06 03:36:02;;;;;;;3.77;3.20;;;;;;;13.62;97.70;98271.34;5071970;28;20668;-80
2023/07/06 03:38:29;;;;;;;4.20;3.10;;;;;;;13.56;98.33;98270.00;5072316;28;20302;-81
2023/07/06 03:40:56;;;;;;;5.10;3.40;;;;;;;13.54;99.21;98268.44;5071589;28;20351;-78
2023/07/06 03:43:23;;;;;;;3.23;2.93;;;;;;;13.50;98.36;98267.84;5071750;28;20674;-79
2023/07/06 03:45:51;;;;;;;3.97;3.00;;;;;;;13.45;98.60;98271.81;5071962;28;20302;-79
2023/07/06 03:48:19;;;;;;;4.57;3.37;;;;;;;13.42;98.43;98272.91;5071883;28;20302;-80
2023/07/06 03:50:46;;;;;;;3.87;3.10;;;;;;;13.38;98.21;98268.78;5073215;28;20300;-78
2023/07/06 03:53:13;;;;;;;4.23;3.10;;;;;;;13.33;98.35;98267.47;5074110;28;20234;-79
2023/07/06 03:55:41;;;;;;;3.73;2.90;;;;;;;13.28;98.71;98266.97;5075004;28;20631;-80
2023/07/06 03:58:07;;;;;;;4.20;2.73;;;;;;;13.24;98.80;98260.22;5075110;28;20249;-80
2023/07/06 04:00:35;;;;;;;3.67;3.00;;;;;;;13.22;99.66;98270.13;5073425;28;20604;-80
2023/07/06 04:03:04;;;;;;;3.60;3.30;;;;;;;13.22;99.64;98264.81;5071461;28;20207;-79
2023/07/06 04:05:34;;;;;;;4.00;3.60;;;;;;;13.25;99.75;98267.22;5071309;28;20212;-79
2023/07/06 04:08:03;;;;;;;4.20;3.40;;;;;;;13.25;100.00;98264.53;5071866;28;20214;-79
2023/07/06 04:10:30;;;;;;;3.50;3.20;;;;;;;13.26;100.00;98269.75;5070919;28;20231;-79
2023/07/06 04:12:57;;;;;;;3.57;2.97;;;;;;;13.31;100.00;98269.38;5071327;28;20220;-78
2023/07/06 04:15:24;;;;;;;5.37;3.00;;;;;;;13.32;100.00;98268.44;5071248;28;20211;-78
2023/07/06 04:17:53;;;;;;;4.23;2.80;;;;;;;13.31;100.00;98274.69;5071197;28;20258;-81
2023/07/06 04:20:23;;;;;;;4.43;3.40;;;;;;;13.34;100.00;98277.13;5071154;28;20607;-78
2023/07/06 04:22:54;;;;;;;3.30;3.00;;;;;;;13.37;100.00;98276.88;5071202;28;20222;-79
2023/07/06 04:25:22;;;;;;;4.50;2.93;;;;;;;13.35;100.00;98284.97;5071157;28;20203;-80
2023/07/06 04:27:49;;;;;;;4.03;3.60;;;;;;;13.34;100.00;98279.78;5071297;28;20214;-80
2023/07/06 04:30:17;;;;;;;4.97;3.00;;;;;;;13.36;100.00;98280.50;5070811;28;20272;-81
2023/07/06 04:32:48;;;;;;;3.47;2.90;;;;;;;13.38;100.00;98283.91;5071156;28;20650;-81
2023/07/06 04:35:17;;;;;;;5.53;3.07;;;;;;;13.45;100.00;98274.47;5071482;28;20207;-78
2023/07/06 04:37:46;;;;;;;3.40;2.87;;;;;;;13.46;99.89;98276.16;5071247;28;20257;-79
2023/07/06 04:40:17;;;;;;;3.60;3.30;;;;;;;13.54;99.66;98276.41;5070784;28;20239;-81
2023/07/06 04:42:46;;;;;;;3.80;3.07;;;;;;;13.59;99.04;98277.75;5071222;28;20230;-79
2023/07/06 04:45:12;;;;;;;3.33;3.03;;;;;;;13.65;98.35;98281.72;5071207;28;20685;-80
2023/07/06 04:47:39;;;;;;;5.33;3.37;;;;;;;13.71;97.75;98286.53;5071506;28;20584;-80
2023/07/06 04:50:08;;;;;;;3.73;3.33;;;;;;;13.72;98.78;98294.41;5071090;28;20238;-80
2023/07/06 04:52:37;;;;;;;4.40;3.50;;;;;;;13.79;99.96;98289.44;5071367;28;20584;-78
2023/07/06 04:55:06;;;;;;;4.63;3.50;;;;;;;13.90;100.00;98294.75;5071081;28;20261;-80
2023/07/06 04:57:33;;;;;;;4.53;3.40;;;;;;;13.98;100.00;98293.16;5071020;28;20207;-79
2023/07/06 05:00:01;;;;;;;4.23;3.83;;;;;;;14.07;100.00;98294.22;5070686;28;20432;-78
2023/07/06 05:02:30;;;;;;;4.30;3.60;;;;;;;14.13;100.00;98299.06;5071301;28;20204;-78
2023/07/06 05:04:56;;;;;;;5.07;3.97;;;;;;;14.27;100.00;98304.97;5071705;28;20294;-79
2023/07/06 05:07:23;;;;;;;5.07;3.67;;;;;;;14.46;100.00;98293.66;5074776;28;20241;-78
2023/07/06 05:09:50;;;;;;;4.77;3.63;;;;;;;14.78;100.00;98303.34;5074111;28;20274;-78
2023/07/06 05:12:18;;;;;;;3.67;3.37;;;;;;;15.26;96.79;98293.03;5074823;28;20638;-79
2023/07/06 05:14:46;;;;;;;4.73;3.37;;;;;;;15.87;91.36;98290.28;5074940;28;20216;-78
2023/07/06 05:17:13;;;;;;;4.50;3.47;;;;;;;16.47;86.38;98283.00;5074852;28;20212;-78
2023/07/06 05:19:39;;;;;;;4.17;3.40;;;;;;;17.06;83.07;98282.91;5074478;28;20227;-79
2023/07/06 05:22:06;;;;;;;4.37;3.20;;;;;;;17.64;79.07;98279.97;5074596;28;20597;-79
2023/07/06 05:24:32;;;;;;;4.30;3.60;;;;;;;18.23;74.94;98269.69;5074470;28;20218;-79
2023/07/06 05:26:59;;;;;;;4.33;3.20;;;;;;;18.61;73.20;98266.78;5074734;28;20207;-78
2023/07/06 05:29:27;;;;;;;3.40;3.03;;;;;;;19.06;70.05;98256.81;5074343;28;20238;-79
2023/07/06 05:31:53;;;;;;;5.77;2.97;;;;;;;19.40;67.73;98249.72;5074258;28;20696;-79
2023/07/06 05:34:20;;;;;;;4.30;2.50;;;;;;;19.74;65.95;98247.91;5074417;28;20207;-78
2023/07/06 05:36:46;;;;;;;3.73;3.00;;;;;;;20.03;62.11;98237.63;5074220;28;20212;-79
2023/07/06 05:39:13;;;;;;;3.43;3.10;;;;;;;20.32;60.09;98227.38;5073909;28;20229;-78
2023/07/06 05:41:39;;;;;;;3.57;3.10;;;;;;;20.62;59.30;98234.81;5074285;28;20227;-80
2023/07/06 05:44:06;;;;;;;4.07;3.07;;;;;;;20.74;58.65;98243.38;5074206;28;20204;-80
2023/07/06 05:46:33;;;;;;;3.43;2.90;;;;;;;20.95;58.12;98241.91;5074310;28;20218;-79
2023/07/06 05:49:00;;;;;;;4.13;3.00;;;;;;;21.06;56.40;98238.88;5074322;28;20235;-79
2023/07/06 05:51:26;;;;;;;5.30;3.00;;;;;;;21.11;56.27;98241.91;5073714;28;20290;-79
2023/07/06 05:53:53;;;;;;;4.07;3.10;;;;;;;21.29;55.88;98234.50;5074178;28;20207;-79
2023/07/06 05:56:21;;;;;;;4.93;3.00;;;;;;;21.50;55.62;98247.38;5074055;28;20211;-79
2023/07/06 05:58:48;;;;;;;5.87;3.00;;;;;;;21.85;53.89;98230.84;5073830;28;20689;-78
2023/07/06 06:01:14;;;;;;;2.90;2.60;;;;;;;22.16;53.59;98242.47;5073510;28;20238;-79
2023/07/06 06:03:42;;;;;;;3.47;2.80;;;;;;;22.35;52.30;98233.97;5073732;28;20208;-80
2023/07/06 06:06:10;;;;;;;4.77;3.10;;;;;;;22.60;51.84;98233.69;5073660;28;20290;-80
2023/07/06 06:08:38;;;;;;;3.00;2.53;;;;;;;22.83;51.37;98233.69;5073422;28;20218;-80
2023/07/06 06:11:04;;;;;;;3.53;2.60;;;;;;;23.02;50.68;98227.81;5073127;28;20254;-79
2023/07/06 06:13:31;;;;;;;6.47;2.93;;;;;;;23.23;50.01;98231.53;5073750;28;20713;-80
2023/07/06 06:15:58;;;;;;;5.97;2.90;;;;;;;23.56;49.86;98243.69;5073512;28;20674;-75
2023/07/06 06:18:25;;;;;;;3.00;2.33;;;;;;;23.86;48.72;98229.19;5073656;28;20214;-85
2023/07/06 06:20:53;;;;;;;3.37;2.50;;;;;;;24.13;48.42;98222.31;5073282;28;20711;-83
2023/07/06 06:23:20;;;;;;;4.40;2.43;;;;;;;24.29;48.01;98225.63;5073418;28;20216;-83
2023/07/06 06:25:47;;;;;;;2.77;2.37;;;;;;;24.51;47.06;98224.63;5073469;28;20218;-83
2023/07/06 06:28:14;;;;;;;4.67;2.60;;;;;;;24.50;46.29;98214.84;5073601;28;20207;-82
2023/07/06 06:30:41;;;;;;;3.20;2.43;;;;;;;24.50;45.99;98231.06;5073236;28;20234;-82
2023/07/06 06:33:08;;;;;;;2.73;2.47;;;;;;;24.15;46.99;98228.34;5073291;28;20215;-82
2023/07/06 06:35:35;;;;;;;3.33;2.50;;;;;;;24.02;46.97;98223.59;5073677;28;20207;-82
2023/07/06 06:38:05;;;;;;;2.93;2.37;;;;;;;24.16;46.07;98228.16;5073198;28;20214;-83
2023/07/06 06:40:34;;;;;;;3.37;2.70;;;;;;;24.46;45.10;98221.69;5072693;28;20239;-82
2023/07/06 06:43:01;;;;;;;3.10;2.20;;;;;;;24.55;44.94;98230.47;5073565;28;20203;-81
2023/07/06 06:45:28;;;;;;;3.50;2.90;;;;;;;24.56;43.56;98221.38;5073264;28;20624;-83
2023/07/06 06:47:54;;;;;;;2.60;2.20;;;;;;;24.68;43.64;98222.56;5073088;28;20208;-83
2023/07/06 06:50:21;;;;;;;3.03;2.10;;;;;;;24.72;42.14;98216.59;5072566;28;20227;-84
2023/07/06 06:52:49;;;;;;;2.37;2.03;;;;;;;24.70;42.24;98215.91;5072826;28;20217;-83
2023/07/06 06:55:17;;;;;;;5.43;2.40;;;;;;;24.60;42.01;98210.00;5072681;28;20204;-83
2023/07/06 06:57:44;;;;;;;2.30;2.07;;;;;;;24.45;42.06;98208.34;5072628;28;20207;-82
2023/07/06 07:00:14;;;;;;;3.93;2.20;;;;;;;24.24;41.99;98211.84;5072312;28;20228;-82
2023/07/06 07:02:41;;;;;;;2.47;2.03;;;;;;;24.23;42.21;98214.72;5072578;28;20208;-81
2023/07/06 07:05:08;;;;;;;3.00;2.20;;;;;;;24.28;42.21;98207.75;5072856;28;20287;-81
2023/07/06 07:07:37;;;;;;;4.40;2.03;;;;;;;24.25;42.77;98213.50;5072472;28;20212;-81
2023/07/06 07:10:05;;;;;;;2.83;2.10;;;;;;;24.10;41.92;98196.50;5072295;28;20227;-82
2023/07/06 07:12:33;;;;;;;3.13;2.07;;;;;;;23.52;43.22;98206.47;5072420;28;20665;-83
2023/07/06 07:14:59;;;;;;;2.90;1.97;;;;;;;22.84;44.15;98211.94;5072320;28;20219;-82
2023/07/06 07:17:27;;;;;;;3.37;2.10;;;;;;;22.41;45.30;98228.72;5072496;28;20207;-82
2023/07/06 07:19:53;;;;;;;2.63;1.90;;;;;;;21.90;46.15;98228.47;5072103;28;20223;-81
2023/07/06 07:22:21;;;;;;;2.10;1.57;;;;;;;21.55;47.48;98234.25;5072403;28;20598;-81
2023/07/06 07:24:47;;;;;;;3.27;1.90;;;;;;;21.32;48.52;98254.81;5072253;28;20268;-81
2023/07/06 07:27:14;;;;;;;2.97;1.87;;;;;;;21.26;48.96;98247.41;5071844;28;20207;-81
2023/07/06 07:29:43;;;;;;;5.20;2.17;;;;;;;21.33;48.18;98246.56;5071780;28;20701;-81
2023/07/06 07:32:10;;;;;;;2.90;1.80;;;;;;;21.37;48.55;98247.91;5072380;28;20203;-82
2023/07/06 07:34:36;;;;;;;2.40;1.93;;;;;;;21.31;48.87;98253.97;5072276;28;20210;-81
2023/07/06 07:37:03;;;;;;;2.60;1.80;;;;;;;21.35;49.41;98255.31;5071965;28;20578;-83
2023/07/06 07:39:31;;;;;;;3.47;2.00;;;;;;;21.48;48.24;98244.03;5071741;28;20610;-80
2023/07/06 07:41:58;;;;;;;3.63;1.60;;;;;;;21.58;47.23;98245.50;5071902;28;20231;-81
2023/07/06 07:44:28;;;;;;;2.80;2.13;;;;;;;21.53;47.23;98245.19;5072117;28;20211;-82
2023/07/06 07:46:56;;;;;;;2.77;1.60;;;;;;;21.49;47.25;98240.31;5071916;28;20258;-80
2023/07/06 07:49:24;;;;;;;4.30;1.90;;;;;;;21.32;47.79;98234.16;5071641;28;20231;-82
2023/07/06 07:51:51;;;;;;;2.27;1.90;;;;;;;21.36;48.00;98234.63;5071422;28;20210;-80
2023/07/06 07:54:18;;;;;;;4.73;1.60;;;;;;;21.39;48.42;98242.38;5071147;28;20337;-80
2023/07/06 07:56:45;;;;;;;3.30;1.90;;;;;;;21.41;48.09;98243.91;5071312;28;20260;-80
2023/07/06 07:59:11;;;;;;;3.37;2.00;;;;;;;21.57;47.51;98243.84;5071153;28;20258;-79
2023/07/06 08:01:38;;;;;;;3.30;1.90;;;;;;;21.60;46.75;98229.22;5068946;28;20661;-81
2023/07/06 08:04:06;;;;;;;2.00;1.60;;;;;;;21.57;46.53;98237.63;5070638;28;20239;-80
2023/07/06 08:06:33;;;;;;;2.53;1.93;;;;;;;21.51;47.07;98232.94;5070454;28;20648;-79
2023/07/06 08:09:03;;;;;;;2.80;1.70;;;;;;;21.53;48.27;98242.50;5070799;28;20222;-82
2023/07/06 08:11:30;;;;;;;2.37;2.03;;;;;;;21.66;46.98;98236.59;5070264;28;20203;-80
2023/07/06 08:13:56;;;;;;;3.07;1.93;;;;;;;21.76;46.89;98232.72;5069711;28;20646;-78
2023/07/06 08:16:24;;;;;;;4.73;2.13;;;;;;;21.85;46.93;98236.22;5067626;28;20212;-80
2023/07/06 08:18:51;;;;;;;2.90;1.93;;;;;;;22.03;46.69;98234.13;5070291;28;20208;-79
2023/07/06 08:21:19;;;;;;;4.00;1.90;;;;;;;22.24;46.39;98229.81;5069708;28;20607;-79
2023/07/06 08:23:50;;;;;;;3.33;1.80;;;;;;;22.32;46.65;98235.16;5070204;28;20222;-80
2023/07/06 08:26:17;;;;;;;2.43;1.97;;;;;;;22.49;46.92;98236.78;5070321;28;20593;-79
2023/07/06 08:28:46;;;;;;;2.57;1.60;;;;;;;22.61;45.25;98221.06;5070652;28;20214;-79
2023/07/06 08:31:13;;;;;;;2.30;1.80;;;;;;;22.65;44.72;98217.81;5070036;28;20520;-80
2023/07/06 08:33:40;;;;;;;2.23;1.70;;;;;;;22.60;45.07;98228.28;5071020;28;20214;-78
2023/07/06 08:36:08;;;;;;;3.40;1.63;;;;;;;22.73;44.77;98223.16;5070987;28;20211;-80
2023/07/06 08:38:37;;;;;;;4.90;2.07;;;;;;;22.90;44.50;98224.69;5071303;28;20269;-77
2023/07/06 08:41:12;;;;;;;1.67;1.50;;;;;;;22.95;42.54;98203.44;5073306;28;20288;-81
2023/07/06 08:43:40;;;;;;;2.73;2.00;;;;;;;22.42;43.93;98208.84;5075147;28;20233;-82
2023/07/06 08:46:06;;;;;;;5.87;2.40;;;;;;;22.56;45.25;98229.66;5075142;28;20211;-78
2023/07/06 08:48:36;;;;;;;2.27;1.93;;;;;;;22.73;43.81;98209.66;5075055;28;20213;-76
2023/07/06 08:51:17;;;;;;;3.27;1.93;;;;;;;22.64;43.30;98207.22;5074933;28;20233;-76
2023/07/06 08:53:51;;;;;;;2.87;2.10;;;;;;;22.61;43.41;98203.03;5075428;28;20199;-78
2023/07/06 08:56:21;;;;;;;3.77;1.90;;;;;;;22.83;43.03;98201.34;5074087;28;20214;-79
2023/07/06 08:58:49;;;;;;;3.87;2.00;;;;;;;22.87;42.91;98203.50;5073513;28;20215;-84
2023/07/06 09:01:18;;;;;;;2.23;1.70;;;;;;;22.87;43.79;98208.88;5073763;28;20250;-80
2023/07/06 09:03:48;;;;;;;2.30;1.60;;;;;;;22.99;42.95;98199.34;5074098;28;20214;-79
2023/07/06 09:06:19;;;;;;;3.63;1.83;;;;;;;22.78;42.14;98187.56;5074088;28;20751;-79
2023/07/06 09:08:47;;;;;;;2.00;1.70;;;;;;;22.80;42.40;98197.16;5074208;28;20207;-79
2023/07/06 09:11:14;;;;;;;3.07;1.93;;;;;;;22.94;42.47;98188.28;5088446;22;20292;-83
2023/07/06 09:13:46;;;;;;;3.93;2.23;;;;;;;23.08;41.26;98184.78;5072945;28;20230;-83
2023/07/06 09:16:18;;;;;;;2.83;1.87;;;;;;;23.08;42.65;98189.31;5073409;28;20215;-78
2023/07/06 09:18:44;;;;;;;5.23;1.80;;;;;;;23.30;43.66;98205.53;5073726;28;20208;-78
2023/07/06 09:21:12;;;;;;;3.60;2.10;;;;;;;23.42;41.87;98187.81;5073138;28;20227;-83
2023/07/06 09:23:39;;;;;;;3.80;1.57;;;;;;;23.38;40.63;98173.06;5073626;28;20206;-85
2023/07/06 09:26:08;;;;;;;3.60;2.17;;;;;;;23.29;40.73;98174.16;5073162;28;20753;-85
2023/07/06 09:28:35;;;;;;;2.63;1.70;;;;;;;23.31;41.10;98169.44;5073638;28;20204;-90
2023/07/06 09:31:08;;;;;;;4.10;2.00;;;;;;;23.19;40.59;98172.75;5073158;28;20235;-85
2023/07/06 09:33:42;;;;;;;3.50;1.77;;;;;;;23.27;40.91;98178.91;5073509;28;20211;-84
2023/07/06 09:36:15;;;;;;;2.13;1.93;;;;;;;23.25;40.48;98180.94;5073445;28;20204;-85
2023/07/06 09:38:45;;;;;;;2.23;1.70;;;;;;;23.26;39.74;98163.75;5073179;28;20260;-85
2023/07/06 09:41:25;;;;;;;2.87;1.87;;;;;;;23.54;38.77;98163.94;5073256;28;20234;-82
2023/07/06 09:43:58;;;;;;;1.90;1.80;;;;;;;23.74;38.76;98170.44;5073451;28;20207;-85
2023/07/06 09:46:27;;;;;;;2.93;1.80;;;;;;;23.79;38.56;98179.66;5073181;28;20277;-85
2023/07/06 09:48:54;;;;;;;2.50;1.70;;;;;;;23.97;37.66;98168.50;5073047;28;20735;-83
2023/07/06 09:51:29;;;;;;;3.13;2.23;;;;;;;24.11;37.80;98168.47;5072525;28;20223;-83
2023/07/06 09:54:00;;;;;;;2.47;1.70;;;;;;;24.13;38.20;98171.00;5073621;28;20218;-83
2023/07/06 09:56:29;;;;;;;3.63;2.03;;;;;;;24.28;39.08;98191.53;5072853;28;20218;-80
2023/07/06 09:58:56;;;;;;;2.67;1.87;;;;;;;24.55;37.01;98171.88;5073149;28;20615;-86
2023/07/06 10:01:34;;;;;;;5.17;2.13;;;;;;;24.72;38.27;98184.16;5072727;28;20223;-82
2023/07/06 10:04:25;;;;;;;2.20;1.80;;;;;;;24.77;38.73;98187.09;5073152;28;20207;-84
2023/07/06 10:07:01;;;;;;;2.87;2.00;;;;;;;24.83;38.35;98191.75;5072807;28;20206;-87
2023/07/06 10:09:33;;;;;;;2.13;1.83;;;;;;;24.83;38.12;98186.34;5072535;28;20681;-83
2023/07/06 10:12:11;;;;;;;2.63;2.00;;;;;;;24.91;37.63;98188.91;5072851;28;20204;-83
2023/07/06 10:14:44;;;;;;;3.80;1.87;;;;;;;24.82;37.66;98189.22;5073033;28;20387;-85
2023/07/06 10:17:20;;;;;;;4.17;2.10;;;;;;;24.67;38.33;98189.28;5072687;28;20207;-86
2023/07/06 10:19:54;;;;;;;4.10;2.00;;;;;;;24.45;37.32;98182.16;5072500;28;20227;-85
2023/07/06 10:22:29;;;;;;;2.50;1.80;;;;;;;24.29;37.61;98185.09;5072625;28;20227;-85
2023/07/06 10:25:09;;;;;;;2.40;2.00;;;;;;;24.21;38.38;98190.59;5073815;28;20211;-88
2023/07/06 10:27:44;;;;;;;2.67;1.80;;;;;;;24.17;39.37;98200.13;5073704;28;20215;-87
2023/07/06 10:30:22;;;;;;;2.83;2.20;;;;;;;24.25;37.51;98181.09;5073549;28;20231;-89
2023/07/06 10:32:54;;;;;;;4.87;2.27;;;;;;;24.38;37.62;98186.66;5073301;28;20325;-88
2023/07/06 10:35:27;;;;;;;3.37;2.23;;;;;;;24.53;38.17;98195.56;5073755;28;20210;-86
2023/07/06 10:37:56;;;;;;;2.37;1.83;;;;;;;24.60;37.69;98180.28;5073663;28;20234;-85
2023/07/06 10:40:24;;;;;;;3.63;2.07;;;;;;;24.67;36.84;98181.19;5073008;28;20237;-84
2023/07/06 10:43:12;;;;;;;3.30;2.00;;;;;;;24.45;37.44;98192.13;5072910;28;20231;-84
2023/07/06 10:45:45;;;;;;;2.70;2.00;;;;;;;24.52;37.84;98193.88;5073252;28;20294;-84
2023/07/06 10:48:14;;;;;;;2.63;1.93;;;;;;;24.74;38.05;98198.28;5072950;28;20207;-84
2023/07/06 10:50:51;;;;;;;2.63;2.00;;;;;;;24.98;37.82;98183.53;5072519;28;20231;-84
2023/07/06 10:53:24;;;;;;;3.90;1.63;;;;;;;25.02;38.09;98201.91;5072969;28;20670;-83
2023/07/06 10:56:17;;;;;;;2.33;2.00;;;;;;;25.20;37.83;98194.16;5072956;28;20207;-78
2023/07/06 10:58:54;;;;;;;2.97;1.80;;;;;;;25.39;36.98;98182.66;5058622;28;20211;-87
2023/07/06 11:01:23;;;;;;;4.80;2.10;;;;;;;25.37;35.99;98190.13;5072447;28;20223;-86
2023/07/06 11:03:50;;;;;;;3.87;2.30;;;;;;;25.15;36.70;98185.78;5071821;28;20317;-82
2023/07/06 11:06:37;;;;;;;2.47;1.80;;;;;;;25.34;36.54;98195.94;5072447;28;20226;-84
2023/07/06 11:09:23;;;;;;;2.40;1.80;;;;;;;25.30;37.19;98197.38;5070994;28;20214;-81
2023/07/06 11:12:18;;;;;;;2.00;1.80;;;;;;;25.36;36.68;98196.56;5071995;28;20215;-82
2023/07/06 11:14:46;;;;;;;3.90;2.10;;;;;;;25.48;37.19;98191.47;5071457;28;20208;-85
2023/07/06 11:17:28;;;;;;;3.23;1.90;;;;;;;25.60;36.45;98185.28;5071709;28;20210;-85
2023/07/06 11:19:59;;;;;;;3.07;2.00;;;;;;;25.62;35.76;98177.84;5070906;28;20578;-85
2023/07/06 11:22:26;;;;;;;3.97;2.00;;;;;;;25.46;35.47;98180.84;5071580;28;20227;-85
2023/07/06 11:25:05;;;;;;;2.30;2.10;;;;;;;25.25;36.73;98185.47;5071334;28;20210;-85
2023/07/06 11:27:36;;;;;;;2.40;1.87;;;;;;;25.15;37.29;98183.06;5071221;28;20253;-85
2023/07/06 11:30:12;;;;;;;2.47;2.20;;;;;;;25.34;36.53;98187.81;5070973;28;20851;-93
2023/07/06 11:32:49;;;;;;;2.10;1.90;;;;;;;25.53;36.32;98179.00;5072191;28;20203;-90
2023/07/06 11:35:26;;;;;;;4.07;2.10;;;;;;;25.78;36.67;98182.91;5071588;28;20712;-89
2023/07/06 11:38:09;;;;;;;3.47;2.10;;;;;;;26.03;35.20;98167.03;5072020;28;20211;-91
2023/07/06 11:40:48;;;;;;;3.63;2.05;;;;;;;26.00;35.21;98168.28;5071612;28;20615;-90
2023/07/06 11:43:32;;;;;;;2.50;1.83;;;;;;;25.84;34.91;98159.63;5073158;28;20288;-88